Paradise, Michigan
Current Conditions -  °F | °C
As of 3:00 PM on Monday 24 Nov 2014 (Local Time) from CYAM Reporting Station
Drizzle Drizzle  
Wind Chill: 30°   Ceiling: 300
Heat Index: 39°   Visibility: 1mi
Dew Point: 39°   Wind: 17mph
Humidity: 100%   Direction: 270°W
Pressure: 29.01"   Gusts: NA
Location:  46.63°N, 85.04°W
Report Text: CYAM 242000Z 27015KT 1SM -DZ OVC003 04/04 A2901 RMK FG4SC4 SLP828
Loading
Personal Weather Stations






























Interactive Weather Map New forecast layout! Learn more

10-Day Weather Forecast

Advertisements
Track Severe Weather on mobile